Time;durP1;ratioP1;P1;durP2;ratioP2;P2;SDS_P1;SDS_P2;PMS_P1;PMS_P2;Temp;Humidity;BMP_temperature;BMP_pressure;BME280_temperature;BME280_humidity;BME280_pressure;Samples;Min_cycle;Max_cycle;Signal;HPM_P1;HPM_P2
2021/05/29 00:01:18;;;;;;;2.90;1.67;;;;;;;12.00;81.35;97720.42;1723923;82;21197;-67
2021/05/29 00:03:45;;;;;;;2.15;1.65;;;;;;;12.02;80.99;97723.22;1724113;82;21115;-65
2021/05/29 00:06:12;;;;;;;3.27;2.05;;;;;;;12.00;81.46;97724.33;1724106;82;21046;-69
2021/05/29 00:08:39;;;;;;;2.17;1.70;;;;;;;11.97;81.82;97725.47;1724024;82;21082;-67
2021/05/29 00:11:06;;;;;;;1.57;1.30;;;;;;;11.95;81.53;97718.28;1724211;82;21477;-66
2021/05/29 00:13:34;;;;;;;2.17;1.70;;;;;;;11.95;81.83;97718.77;1724178;82;21049;-67
2021/05/29 00:16:02;;;;;;;2.25;1.70;;;;;;;11.94;81.93;97724.97;1724365;82;21070;-65
2021/05/29 00:18:29;;;;;;;4.72;2.25;;;;;;;11.89;82.24;97726.25;1724277;82;21074;-66
2021/05/29 00:20:56;;;;;;;2.27;1.60;;;;;;;11.84;82.60;97726.38;1724658;82;21050;-65
2021/05/29 00:23:23;;;;;;;2.65;1.30;;;;;;;11.82;82.53;97722.66;1724996;82;21034;-66
2021/05/29 00:25:50;;;;;;;2.50;1.60;;;;;;;11.83;82.19;97720.35;1724225;82;21067;-66
2021/05/29 00:28:17;;;;;;;1.77;1.67;;;;;;;11.82;82.20;97716.63;1724296;82;21051;-66
2021/05/29 00:30:45;;;;;;;3.42;2.35;;;;;;;11.81;82.32;97717.59;1724142;82;21073;-67
2021/05/29 00:33:13;;;;;;;2.33;1.77;;;;;;;11.82;82.11;97720.05;1724097;82;21042;-66
2021/05/29 00:35:41;;;;;;;6.28;1.70;;;;;;;11.81;81.98;97723.61;1724261;82;21566;-75
2021/05/29 00:38:08;;;;;;;2.55;1.65;;;;;;;11.83;81.78;97721.66;1724632;82;21070;-67
2021/05/29 00:40:36;;;;;;;2.60;1.55;;;;;;;11.82;81.90;97720.53;1724641;82;21083;-72
2021/05/29 00:43:05;;;;;;;2.08;1.30;;;;;;;11.83;81.69;97721.66;1724572;82;21055;-66
2021/05/29 00:45:33;;;;;;;1.45;1.30;;;;;;;11.83;81.46;97724.25;1724597;82;21684;-65
2021/05/29 00:48:01;;;;;;;1.72;1.50;;;;;;;11.85;81.18;97726.72;1724371;82;21065;-66
2021/05/29 00:50:31;;;;;;;1.85;1.55;;;;;;;11.84;81.26;97731.09;1724314;82;21070;-65
2021/05/29 00:52:59;;;;;;;2.17;1.52;;;;;;;11.74;82.70;97732.20;1724104;82;21668;-65
2021/05/29 00:55:26;;;;;;;3.17;1.82;;;;;;;11.63;83.04;97742.36;1724227;82;21090;-68
2021/05/29 00:57:54;;;;;;;1.67;1.55;;;;;;;11.53;83.47;97737.73;1719951;82;21190;-68
2021/05/29 01:00:23;;;;;;;2.22;1.60;;;;;;;11.51;83.24;97737.09;1714426;82;21617;-68
2021/05/29 01:02:52;;;;;;;1.37;1.27;;;;;;;11.49;83.11;97736.41;1714250;82;20999;-71
2021/05/29 01:05:20;;;;;;;1.80;1.50;;;;;;;11.49;83.03;97734.29;1714426;82;21118;-72
2021/05/29 01:07:54;;;;;;;3.17;1.52;;;;;;;11.47;83.08;97734.47;1714395;82;21042;-72
2021/05/29 01:10:24;;;;;;;2.83;2.02;;;;;;;11.49;82.32;97735.59;1714377;82;21058;-73
2021/05/29 01:12:55;;;;;;;2.58;1.90;;;;;;;11.49;82.56;97730.39;1714263;82;21038;-73
2021/05/29 01:15:23;;;;;;;1.95;1.60;;;;;;;11.47;82.65;97737.06;1714518;82;21519;-72
2021/05/29 01:17:50;;;;;;;2.85;2.05;;;;;;;11.43;82.76;97732.66;1714306;82;21051;-71
2021/05/29 01:20:18;;;;;;;2.42;1.50;;;;;;;11.40;83.02;97732.12;1714290;82;21114;-71
2021/05/29 01:22:52;;;;;;;2.37;2.10;;;;;;;11.40;83.01;97727.73;1714152;82;21063;-71
2021/05/29 01:25:29;;;;;;;3.75;1.77;;;;;;;11.42;82.34;97721.09;1714384;82;21045;-71
2021/05/29 01:28:06;;;;;;;8.70;1.62;;;;;;;11.39;82.79;97714.91;1714491;82;21047;-71
2021/05/29 01:30:50;;;;;;;2.02;1.62;;;;;;;11.38;82.81;97714.57;1714459;82;21070;-72
2021/05/29 01:33:22;;;;;;;1.80;1.32;;;;;;;11.34;83.01;97711.95;1714496;82;21011;-71
2021/05/29 01:35:51;;;;;;;1.77;1.37;;;;;;;11.34;82.93;97720.56;1713647;82;21046;-71
2021/05/29 01:38:21;;;;;;;2.92;1.40;;;;;;;11.31;83.05;97714.86;1714545;82;21003;-71
2021/05/29 01:40:50;;;;;;;1.90;1.52;;;;;;;11.29;82.99;97713.70;1714467;82;21054;-71
2021/05/29 01:43:19;;;;;;;3.87;1.70;;;;;;;11.30;82.59;97715.34;1714461;82;21503;-67
2021/05/29 01:45:46;;;;;;;2.65;1.45;;;;;;;11.28;83.11;97716.47;1714414;82;21039;-68
2021/05/29 01:48:17;;;;;;;1.92;1.22;;;;;;;11.28;82.93;97709.47;1714473;82;21629;-67
2021/05/29 01:50:49;;;;;;;3.02;1.50;;;;;;;11.26;83.25;97710.59;1714395;82;21106;-67
2021/05/29 01:53:19;;;;;;;2.10;1.45;;;;;;;11.21;83.70;97712.34;1714415;82;21531;-67
2021/05/29 01:55:47;;;;;;;2.25;1.35;;;;;;;11.22;83.41;97719.66;1714410;82;21011;-68
2021/05/29 01:58:16;;;;;;;2.70;1.40;;;;;;;11.21;82.86;97712.83;1716654;82;21058;-67
2021/05/29 02:00:43;;;;;;;1.70;1.20;;;;;;;11.20;82.56;97709.44;1719942;82;21549;-68
2021/05/29 02:03:10;;;;;;;2.52;1.65;;;;;;;11.20;83.03;97712.04;1719909;82;21035;-71
2021/05/29 02:05:38;;;;;;;1.65;1.30;;;;;;;11.22;82.80;97715.77;1720076;82;21045;-72
2021/05/29 02:08:08;;;;;;;2.17;1.37;;;;;;;11.21;82.38;97718.02;1719848;82;21118;-72
2021/05/29 02:10:38;;;;;;;2.80;1.55;;;;;;;11.19;82.14;97717.38;1719625;82;21059;-71
2021/05/29 02:13:11;;;;;;;2.55;1.70;;;;;;;11.17;81.91;97720.59;1719813;82;21051;-71
2021/05/29 02:15:42;;;;;;;4.50;2.58;;;;;;;11.15;81.72;97720.77;1719592;82;21787;-72
2021/05/29 02:18:10;;;;;;;2.95;2.22;;;;;;;11.14;81.46;97718.31;1719769;82;21533;-71
2021/05/29 02:20:52;;;;;;;2.20;1.80;;;;;;;11.12;81.48;97718.48;1719601;82;21046;-71
2021/05/29 02:23:29;;;;;;;2.75;2.05;;;;;;;11.11;81.96;97723.81;1719792;82;21085;-72
2021/05/29 02:26:02;;;;;;;4.12;2.67;;;;;;;11.05;82.12;97724.44;1719686;82;21055;-72
2021/05/29 02:28:30;;;;;;;4.62;1.80;;;;;;;11.01;82.74;97725.70;1719710;82;21093;-71
2021/05/29 02:30:58;;;;;;;2.30;1.55;;;;;;;10.99;82.17;97728.92;1719617;82;21106;-71
2021/05/29 02:33:26;;;;;;;4.20;1.72;;;;;;;10.97;81.85;97730.39;1719699;82;21093;-72
2021/05/29 02:35:54;;;;;;;2.25;1.57;;;;;;;10.93;82.01;97729.84;1720140;82;21058;-72
2021/05/29 02:38:21;;;;;;;3.00;1.40;;;;;;;10.91;81.89;97734.87;1720148;82;21018;-72
2021/05/29 02:40:48;;;;;;;3.22;1.98;;;;;;;10.87;81.77;97733.05;1719841;82;21090;-72
2021/05/29 02:43:15;;;;;;;1.62;1.50;;;;;;;10.84;81.73;97730.77;1719804;82;21054;-72
2021/05/29 02:45:42;;;;;;;2.70;1.65;;;;;;;10.80;82.10;97729.91;1719836;82;21141;-72
2021/05/29 02:48:12;;;;;;;6.00;1.80;;;;;;;10.73;82.29;97732.77;1719798;82;21181;-72
2021/05/29 02:50:40;;;;;;;4.22;1.70;;;;;;;10.67;83.12;97730.75;1719705;82;21082;-72
2021/05/29 02:53:10;;;;;;;2.95;1.82;;;;;;;10.61;83.36;97735.26;1719797;82;21032;-72
2021/05/29 02:55:39;;;;;;;3.95;1.60;;;;;;;10.57;82.66;97728.25;1719661;82;21067;-72
2021/05/29 02:58:08;;;;;;;2.92;1.80;;;;;;;10.54;82.80;97727.73;1720237;82;21598;-72
2021/05/29 03:00:42;;;;;;;2.00;1.37;;;;;;;10.52;82.47;97734.36;1722099;82;21149;-72
2021/05/29 03:03:09;;;;;;;1.75;1.27;;;;;;;10.49;82.43;97735.96;1721407;82;21054;-72
2021/05/29 03:05:41;;;;;;;2.42;1.77;;;;;;;10.46;82.38;97733.66;1722140;82;21068;-72
2021/05/29 03:08:09;;;;;;;2.08;1.30;;;;;;;10.44;82.02;97734.27;1721744;82;21213;-72
2021/05/29 03:10:37;;;;;;;1.90;1.57;;;;;;;10.44;81.80;97736.87;1722253;82;21086;-69
2021/05/29 03:13:07;;;;;;;1.67;1.30;;;;;;;10.44;81.61;97745.48;1722328;82;21058;-69
2021/05/29 03:15:35;;;;;;;1.50;1.10;;;;;;;10.44;81.63;97740.77;1722121;82;21069;-69
2021/05/29 03:18:05;;;;;;;1.60;1.27;;;;;;;10.45;81.58;97741.11;1722251;82;21050;-68
2021/05/29 03:20:33;;;;;;;1.82;1.35;;;;;;;10.47;81.89;97742.58;1722206;82;21058;-69
2021/05/29 03:23:00;;;;;;;2.87;1.35;;;;;;;10.51;81.74;97744.41;1722194;82;21018;-69
2021/05/29 03:25:27;;;;;;;2.37;1.47;;;;;;;10.54;81.48;97742.83;1722353;82;21078;-67
2021/05/29 03:27:54;;;;;;;2.12;1.35;;;;;;;10.57;81.35;97741.70;1722229;82;21062;-68
2021/05/29 03:30:26;;;;;;;1.80;1.10;;;;;;;10.60;81.17;97737.03;1722167;82;21618;-68
2021/05/29 03:32:55;;;;;;;1.77;1.40;;;;;;;10.64;81.23;97737.07;1722144;82;21058;-67
2021/05/29 03:35:23;;;;;;;2.22;1.37;;;;;;;10.70;80.99;97742.95;1722185;82;21535;-66
2021/05/29 03:37:51;;;;;;;2.67;1.25;;;;;;;10.76;81.22;97741.08;1722103;82;21630;-66
2021/05/29 03:40:18;;;;;;;2.12;1.22;;;;;;;10.83;81.22;97744.70;1722165;82;21022;-67
2021/05/29 03:42:46;;;;;;;2.10;1.40;;;;;;;10.89;81.50;97742.02;1722506;82;21061;-67
2021/05/29 03:45:16;;;;;;;1.82;1.47;;;;;;;10.93;82.37;97737.64;1722525;82;21034;-68
2021/05/29 03:47:44;;;;;;;1.27;1.17;;;;;;;10.98;82.13;97742.87;1722517;82;21162;-67
2021/05/29 03:50:19;;;;;;;2.52;1.45;;;;;;;11.05;81.54;97736.13;1722484;82;21043;-67
2021/05/29 03:52:47;;;;;;;2.55;1.40;;;;;;;11.13;81.26;97742.66;1722526;82;21102;-67
2021/05/29 03:55:18;;;;;;;2.80;1.60;;;;;;;11.21;80.96;97734.44;1722300;82;21074;-67
2021/05/29 03:57:46;;;;;;;4.05;1.80;;;;;;;11.27;81.68;97742.12;1721984;82;21046;-68
2021/05/29 04:00:18;;;;;;;1.75;1.42;;;;;;;11.26;81.73;97743.09;1719878;82;21058;-66
2021/05/29 04:02:49;;;;;;;4.58;1.98;;;;;;;11.25;80.95;97744.87;1719850;82;21074;-68
2021/05/29 04:05:17;;;;;;;5.35;1.95;;;;;;;11.27;80.76;97742.12;1719900;82;21095;-67
2021/05/29 04:07:44;;;;;;;2.08;1.42;;;;;;;11.25;80.60;97746.17;1719774;82;21082;-68
2021/05/29 04:10:18;;;;;;;2.77;1.95;;;;;;;11.22;80.46;97750.38;1719834;82;21058;-68
2021/05/29 04:12:45;;;;;;;1.60;1.27;;;;;;;11.27;80.57;97740.34;1719812;82;21062;-67
2021/05/29 04:15:14;;;;;;;1.80;1.45;;;;;;;11.32;80.17;97738.59;1719771;82;21038;-68
2021/05/29 04:17:42;;;;;;;1.85;1.50;;;;;;;11.38;79.68;97736.67;1719907;82;21074;-68
2021/05/29 04:20:12;;;;;;;1.40;1.30;;;;;;;11.47;79.17;97734.95;1719780;82;21025;-69
2021/05/29 04:22:40;;;;;;;2.00;1.50;;;;;;;11.40;79.71;97736.02;1719604;82;21121;-68
2021/05/29 04:25:13;;;;;;;1.42;0.88;;;;;;;11.52;78.64;97736.09;1719714;82;21042;-68
2021/05/29 04:27:43;;;;;;;2.87;1.50;;;;;;;11.64;78.38;97731.45;1719655;82;21066;-68
2021/05/29 04:30:15;;;;;;;1.85;1.32;;;;;;;11.74;77.75;97727.81;1719662;82;21033;-69
2021/05/29 04:32:42;;;;;;;1.72;1.30;;;;;;;11.89;77.18;97728.03;1719767;82;21050;-67
2021/05/29 04:35:10;;;;;;;7.05;1.10;;;;;;;11.94;76.80;97724.97;1719682;82;21086;-69
2021/05/29 04:37:41;;;;;;;2.65;1.40;;;;;;;12.08;76.31;97727.78;1719838;82;21113;-67
2021/05/29 04:40:11;;;;;;;2.05;1.22;;;;;;;12.18;76.06;97727.15;1719039;82;21034;-67
2021/05/29 04:42:38;;;;;;;1.45;1.30;;;;;;;12.24;75.84;97723.11;1719637;82;21023;-67
2021/05/29 04:45:09;;;;;;;1.05;0.95;;;;;;;12.36;75.77;97724.45;1719778;82;21499;-68
2021/05/29 04:47:36;;;;;;;1.20;1.10;;;;;;;12.50;75.45;97721.69;1719771;82;21071;-68
2021/05/29 04:50:06;;;;;;;1.77;1.00;;;;;;;12.59;74.69;97715.53;1719730;82;21543;-68
2021/05/29 04:52:33;;;;;;;1.40;1.00;;;;;;;12.64;73.97;97718.47;1719791;82;21058;-69
2021/05/29 04:55:00;;;;;;;1.32;1.05;;;;;;;12.72;73.53;97717.97;1719648;82;21098;-68
2021/05/29 04:57:27;;;;;;;1.82;1.17;;;;;;;12.82;73.31;97711.31;1719733;82;21078;-67
2021/05/29 04:59:53;;;;;;;1.47;1.17;;;;;;;12.88;73.14;97713.77;1719702;82;21070;-67
2021/05/29 05:02:20;;;;;;;3.45;1.07;;;;;;;12.94;73.06;97708.70;1719659;82;21554;-67
2021/05/29 05:04:47;;;;;;;1.95;1.30;;;;;;;13.01;72.93;97708.86;1719769;82;21098;-69
2021/05/29 05:07:14;;;;;;;2.87;1.67;;;;;;;13.08;73.35;97698.91;1719663;82;21039;-68
2021/05/29 05:09:41;;;;;;;2.27;1.12;;;;;;;13.23;72.82;97708.20;1719720;82;21078;-67
2021/05/29 05:12:09;;;;;;;1.57;1.32;;;;;;;13.37;72.69;97705.43;1719628;82;21094;-68
2021/05/29 05:14:35;;;;;;;2.67;1.40;;;;;;;13.49;71.85;97702.31;1719861;82;21098;-68
2021/05/29 05:17:03;;;;;;;1.60;1.20;;;;;;;13.60;71.82;97701.95;1719676;82;21555;-67
2021/05/29 05:19:30;;;;;;;1.60;1.20;;;;;;;13.63;71.28;97697.69;1719703;82;21030;-67
2021/05/29 05:21:58;;;;;;;1.62;1.10;;;;;;;13.78;70.77;97697.80;1719651;82;21466;-68
2021/05/29 05:24:25;;;;;;;2.02;1.20;;;;;;;13.87;70.80;97694.67;1719623;82;21606;-69
2021/05/29 05:26:52;;;;;;;2.33;1.30;;;;;;;14.04;70.93;97698.36;1719788;82;21050;-67
2021/05/29 05:29:19;;;;;;;2.22;1.70;;;;;;;14.16;70.14;97694.88;1719923;82;21022;-68
2021/05/29 05:31:46;;;;;;;2.30;1.40;;;;;;;14.17;69.26;97693.38;1703960;82;21708;-68
2021/05/29 05:34:13;;;;;;;1.52;1.12;;;;;;;14.34;68.99;97701.94;1691002;83;21059;-68
2021/05/29 05:36:41;;;;;;;1.47;1.20;;;;;;;14.41;68.92;97702.09;1690894;83;21050;-68
2021/05/29 05:39:10;;;;;;;2.47;1.20;;;;;;;14.49;69.05;97692.89;1691059;83;21057;-71
2021/05/29 05:41:38;;;;;;;1.80;1.30;;;;;;;14.54;68.28;97694.02;1701823;82;21447;-73
2021/05/29 05:44:07;;;;;;;2.45;1.35;;;;;;;14.65;68.20;97690.98;1719636;82;21066;-73
2021/05/29 05:46:36;;;;;;;1.87;1.25;;;;;;;14.62;67.97;97690.52;1719721;82;21137;-73
2021/05/29 05:49:04;;;;;;;2.58;1.10;;;;;;;14.69;67.97;97690.95;1699259;82;21521;-72
2021/05/29 05:51:32;;;;;;;1.75;1.45;;;;;;;14.88;68.29;97692.77;1709850;82;21625;-73
2021/05/29 05:53:59;;;;;;;1.60;1.30;;;;;;;14.96;67.74;97688.78;1690971;83;21081;-74
2021/05/29 05:56:26;;;;;;;1.45;1.17;;;;;;;15.01;66.61;97679.91;1691054;83;21086;-67
2021/05/29 05:58:56;;;;;;;1.07;0.98;;;;;;;15.15;68.73;97681.73;1692716;83;21131;-63
2021/05/29 06:01:25;;;;;;;2.98;1.47;;;;;;;15.33;67.45;97688.74;1686021;84;21673;-66
2021/05/29 06:03:53;;;;;;;1.57;1.20;;;;;;;15.49;66.39;97683.84;1685798;83;21045;-64
2021/05/29 06:06:21;;;;;;;1.82;1.37;;;;;;;15.55;64.92;97679.23;1685969;84;21144;-65
2021/05/29 06:08:48;;;;;;;1.50;1.05;;;;;;;15.73;65.52;97677.55;1685987;84;21169;-63
2021/05/29 06:11:15;;;;;;;2.67;1.10;;;;;;;15.96;65.91;97674.31;1705670;82;21178;-66
2021/05/29 06:21:27;;;;;;;34.03;18.95;;;;;;;16.93;64.08;97675.03;1685987;84;21055;-72
2021/05/29 06:23:54;;;;;;;30.57;14.38;;;;;;;17.18;64.02;97670.69;1686119;83;21030;-69
2021/05/29 06:26:21;;;;;;;15.50;9.10;;;;;;;17.41;62.84;97673.37;1686020;84;21098;-74
2021/05/29 06:28:48;;;;;;;6.55;3.10;;;;;;;17.65;63.58;97677.88;1685960;84;21200;-70
2021/05/29 06:31:15;;;;;;;2.55;1.70;;;;;;;17.90;61.01;97675.06;1686013;84;21550;-69
2021/05/29 06:33:43;;;;;;;2.00;1.37;;;;;;;18.05;59.29;97667.05;1685900;84;21166;-69
2021/05/29 06:36:09;;;;;;;1.57;1.27;;;;;;;18.23;60.19;97670.75;1685892;84;21129;-70
2021/05/29 06:38:36;;;;;;;2.42;1.25;;;;;;;18.40;56.99;97669.89;1685866;84;21625;-69
2021/05/29 06:41:04;;;;;;;2.17;1.25;;;;;;;18.34;55.56;97670.17;1686014;84;21562;-69
2021/05/29 06:43:32;;;;;;;2.33;1.30;;;;;;;18.39;57.33;97666.45;1711008;82;21199;-66
2021/05/29 06:45:59;;;;;;;2.37;1.42;;;;;;;18.34;55.58;97672.80;1714275;82;21115;-67
2021/05/29 06:48:26;;;;;;;2.37;1.20;;;;;;;18.33;56.17;97675.11;1713215;82;21071;-67
2021/05/29 06:50:55;;;;;;;1.95;1.22;;;;;;;18.44;57.50;97672.43;1713328;82;21062;-70
2021/05/29 06:53:28;;;;;;;1.40;0.93;;;;;;;18.61;56.90;97671.56;1713805;82;21620;-70
2021/05/29 06:58:47;;;;;;;2.22;1.17;;;;;;;18.67;55.97;97671.59;1713784;84;21159;-67
2021/05/29 07:01:07;;;;;;;2.37;1.17;;;;;;;18.78;55.47;97668.86;1711629;82;21162;-67
2021/05/29 07:03:34;;;;;;;1.45;1.10;;;;;;;18.88;55.90;97673.20;1712283;82;21142;-67
2021/05/29 07:06:01;;;;;;;2.37;1.22;;;;;;;19.12;56.99;97667.84;1712531;82;21051;-67
2021/05/29 07:08:28;;;;;;;2.58;1.37;;;;;;;19.25;54.80;97673.92;1712831;82;21138;-68
2021/05/29 07:10:55;;;;;;;2.87;1.45;;;;;;;19.30;54.26;97668.02;1712826;82;21146;-67
2021/05/29 07:13:22;;;;;;;1.10;0.90;;;;;;;19.18;52.66;97669.14;1712774;82;21122;-67
2021/05/29 07:15:49;;;;;;;2.90;1.37;;;;;;;19.27;53.92;97665.30;1712753;82;21186;-67
2021/05/29 07:18:16;;;;;;;2.50;1.00;;;;;;;19.40;53.23;97666.60;1712738;82;21127;-68
2021/05/29 07:20:43;;;;;;;1.42;1.15;;;;;;;19.59;54.70;97669.42;1713195;82;21015;-66
2021/05/29 07:23:10;;;;;;;1.50;1.00;;;;;;;19.81;52.57;97666.81;1713208;82;21189;-67
2021/05/29 07:25:40;;;;;;;1.42;1.12;;;;;;;19.95;50.65;97670.22;1713224;82;21070;-67
2021/05/29 07:28:08;;;;;;;2.72;1.22;;;;;;;20.15;53.19;97664.37;1713257;82;21057;-67
2021/05/29 07:30:36;;;;;;;1.67;1.12;;;;;;;20.18;50.92;97669.21;1713195;82;21063;-69
2021/05/29 07:33:05;;;;;;;1.72;1.20;;;;;;;20.26;49.77;97671.61;1713278;82;21151;-69
2021/05/29 07:35:32;;;;;;;3.37;1.50;;;;;;;20.30;49.82;97664.42;1713155;82;21035;-69
2021/05/29 07:37:59;;;;;;;1.85;1.22;;;;;;;20.13;49.87;97661.92;1713212;82;21182;-68
2021/05/29 07:40:26;;;;;;;1.30;0.90;;;;;;;20.35;52.14;97663.25;1713025;82;21130;-68
2021/05/29 07:42:54;;;;;;;1.60;1.00;;;;;;;20.50;52.29;97659.53;1713284;84;21051;-68
2021/05/29 07:45:20;;;;;;;3.05;1.15;;;;;;;20.61;50.42;97662.80;1713143;82;21543;-68
2021/05/29 07:47:47;;;;;;;2.35;1.17;;;;;;;20.68;49.92;97663.56;1713179;82;21070;-68
2021/05/29 07:50:14;;;;;;;1.77;1.17;;;;;;;20.46;49.64;97659.16;1713060;83;21067;-68
2021/05/29 07:52:42;;;;;;;3.42;1.30;;;;;;;20.44;49.34;97661.18;1713083;82;21055;-68
2021/05/29 07:55:11;;;;;;;2.80;1.30;;;;;;;20.59;48.49;97655.09;1713198;82;21049;-68
2021/05/29 07:57:38;;;;;;;2.27;1.10;;;;;;;20.80;49.71;97657.90;1713162;82;21118;-68
2021/05/29 08:00:10;;;;;;;2.17;1.10;;;;;;;20.72;47.65;97649.73;1714795;82;21657;-68
2021/05/29 08:02:38;;;;;;;2.37;1.27;;;;;;;21.01;46.28;97650.91;1733697;81;21078;-68
2021/05/29 08:05:15;;;;;;;1.95;1.20;;;;;;;21.21;46.10;97654.73;1717952;82;21042;-68
2021/05/29 08:07:36;;;;;;;1.65;0.95;;;;;;;21.39;45.41;97650.00;1717011;82;21137;-68
2021/05/29 08:10:04;;;;;;;2.77;1.15;;;;;;;21.56;46.35;97649.70;1733763;81;21114;-68
2021/05/29 08:12:30;;;;;;;1.60;0.88;;;;;;;21.51;46.62;97641.66;1733818;81;21026;-68
2021/05/29 08:14:57;;;;;;;2.27;1.25;;;;;;;21.80;47.69;97646.19;1733552;81;21709;-68
2021/05/29 08:17:24;;;;;;;2.20;1.10;;;;;;;22.00;46.34;97640.69;1733567;81;21098;-68
2021/05/29 08:19:51;;;;;;;1.20;1.00;;;;;;;22.26;45.60;97644.31;1733646;81;21042;-69
2021/05/29 08:22:17;;;;;;;2.75;1.27;;;;;;;22.39;45.25;97640.68;1717880;82;21051;-69
2021/05/29 08:24:44;;;;;;;1.35;1.10;;;;;;;22.47;41.99;97640.36;1733446;81;21592;-69
2021/05/29 08:27:11;;;;;;;1.90;1.17;;;;;;;22.58;43.28;97630.32;1733731;81;21530;-70
2021/05/29 08:29:38;;;;;;;1.87;1.30;;;;;;;22.78;40.64;97634.02;1717967;82;21059;-67
2021/05/29 08:32:05;;;;;;;1.55;1.00;;;;;;;22.77;39.56;97635.86;1733451;81;21078;-68
2021/05/29 08:34:32;;;;;;;1.20;0.90;;;;;;;22.81;39.71;97633.05;1733736;81;21066;-69
2021/05/29 08:36:59;;;;;;;2.70;1.17;;;;;;;22.99;40.60;97637.45;1733637;81;21164;-70
2021/05/29 08:39:26;;;;;;;1.65;1.20;;;;;;;23.25;42.90;97640.16;1733715;81;21042;-69
2021/05/29 08:41:54;;;;;;;1.62;1.10;;;;;;;23.38;39.19;97645.23;1717915;82;21027;-67
2021/05/29 08:44:21;;;;;;;1.40;1.30;;;;;;;23.49;38.36;97641.28;1717972;82;21138;-68
2021/05/29 08:46:50;;;;;;;1.62;1.07;;;;;;;23.59;41.96;97648.11;1718163;82;21078;-69
2021/05/29 08:49:17;;;;;;;1.85;1.00;;;;;;;23.46;39.28;97650.22;1733738;81;21625;-69
2021/05/29 08:51:44;;;;;;;1.65;0.90;;;;;;;23.52;38.97;97646.63;1733914;81;21007;-71
2021/05/29 08:54:11;;;;;;;2.77;1.10;;;;;;;23.54;40.92;97648.54;1733955;81;21208;-71
2021/05/29 08:56:38;;;;;;;1.57;1.00;;;;;;;23.61;38.49;97643.91;1718326;82;21185;-71
2021/05/29 08:59:05;;;;;;;1.70;1.30;;;;;;;23.68;41.14;97655.19;1717664;82;21035;-70
2021/05/29 09:01:31;;;;;;;1.27;0.90;;;;;;;23.69;40.71;97655.48;1712799;82;21571;-70
2021/05/29 09:04:07;;;;;;;1.50;0.95;;;;;;;23.52;40.97;97658.03;1712838;82;21059;-69
2021/05/29 09:06:40;;;;;;;2.12;0.98;;;;;;;23.57;38.82;97661.31;1712881;82;21713;-71
2021/05/29 09:09:11;;;;;;;2.33;0.90;;;;;;;23.62;39.53;97656.11;1713012;82;21059;-71
2021/05/29 09:11:53;;;;;;;1.25;0.90;;;;;;;23.67;38.85;97655.41;1712897;82;21122;-69
2021/05/29 09:14:39;;;;;;;1.47;0.90;;;;;;;23.69;38.90;97662.11;1712684;82;21520;-68
2021/05/29 09:17:24;;;;;;;;;;;;;;;23.75;36.33;97655.05;1715405;82;21031;-69
2021/05/29 09:20:05;;;;;;;49.08;26.73;;;;;;;23.78;38.52;97651.93;1711790;82;20198;-68
2021/05/29 09:22:36;;;;;;;2.95;2.42;;;;;;;23.77;37.50;97653.80;1713440;82;21067;-68
2021/05/29 09:25:14;;;;;;;2.72;1.60;;;;;;;23.87;36.69;97646.05;1713229;82;21023;-69
2021/05/29 09:31:04;;;;;;;1.95;1.07;;;;;;;24.12;37.66;97643.09;1668400;82;21124;-68
2021/05/29 09:33:35;;;;;;;2.15;1.10;;;;;;;24.25;38.64;97643.34;1669062;85;21550;-68
2021/05/29 09:36:06;;;;;;;2.15;1.07;;;;;;;24.29;40.44;97642.63;1702913;83;21236;-68
2021/05/29 09:38:43;;;;;;;1.57;0.90;;;;;;;24.45;39.27;97641.06;1702982;83;21172;-68
2021/05/29 09:41:28;;;;;;;1.35;0.88;;;;;;;24.52;40.90;97645.69;1703000;83;21073;-66
2021/05/29 09:44:06;;;;;;;1.92;1.25;;;;;;;24.62;38.91;97645.89;1703191;83;21506;-68
2021/05/29 09:46:56;;;;;;;1.22;0.80;;;;;;;24.50;38.73;97647.28;1703216;83;21171;-68
2021/05/29 09:49:27;;;;;;;1.65;1.10;;;;;;;24.63;35.63;97653.33;1691370;83;21189;-66
2021/05/29 09:51:54;;;;;;;0.65;0.65;;;;;;;24.18;34.17;97645.33;1703180;83;21553;-66
2021/05/29 09:54:25;;;;;;;1.40;1.00;;;;;;;24.35;39.17;97648.33;1703309;83;21212;-69
2021/05/29 09:57:02;;;;;;;2.95;0.90;;;;;;;24.44;39.72;97651.38;1703093;83;21093;-68
2021/05/29 09:59:31;;;;;;;1.72;0.98;;;;;;;24.31;34.63;97651.70;1703168;83;21156;-68
2021/05/29 10:01:59;;;;;;;1.40;1.00;;;;;;;24.26;36.77;97649.75;1703145;83;21708;-67
2021/05/29 10:04:36;;;;;;;0.98;0.60;;;;;;;24.44;39.01;97644.75;1703131;83;21181;-68
2021/05/29 10:07:05;;;;;;;0.80;0.60;;;;;;;24.73;38.85;97648.99;1702462;83;21180;-68
2021/05/29 10:09:33;;;;;;;1.72;0.85;;;;;;;24.85;37.61;97655.59;1702865;83;21160;-67
2021/05/29 10:12:01;;;;;;;1.65;1.00;;;;;;;24.98;36.75;97656.06;1703446;83;21188;-70
2021/05/29 10:14:30;;;;;;;1.00;0.88;;;;;;;25.11;37.95;97655.45;1703482;83;21133;-69
2021/05/29 10:17:02;;;;;;;1.00;0.80;;;;;;;25.20;38.44;97660.66;1703436;83;21221;-70
2021/05/29 10:19:30;;;;;;;1.45;0.90;;;;;;;25.22;38.43;97658.55;1702513;83;21049;-70
2021/05/29 10:22:10;;;;;;;1.55;1.12;;;;;;;25.11;37.93;97654.94;1703463;83;21149;-74
2021/05/29 10:24:40;;;;;;;2.10;0.95;;;;;;;25.09;37.55;97654.91;1702574;83;21085;-69
2021/05/29 10:27:24;;;;;;;0.80;0.60;;;;;;;24.99;35.64;97650.23;1703239;83;21676;-69
2021/05/29 10:29:55;;;;;;;4.60;1.00;;;;;;;25.04;36.75;97644.48;1703066;83;21125;-69
2021/05/29 10:32:22;;;;;;;2.25;0.80;;;;;;;25.13;37.01;97634.78;1703435;83;21141;-71
2021/05/29 10:34:58;;;;;;;1.98;0.90;;;;;;;25.40;38.74;97637.03;1703305;83;21058;-69
2021/05/29 10:37:55;;;;;;;1.02;0.75;;;;;;;25.43;34.72;97637.87;1703261;83;21293;-72
2021/05/29 10:40:34;;;;;;;2.50;0.82;;;;;;;25.72;38.68;97640.67;1703489;83;21077;-71
2021/05/29 10:43:19;;;;;;;1.90;0.68;;;;;;;25.72;36.57;97643.88;1703307;83;21070;-70
2021/05/29 10:45:57;;;;;;;1.00;0.72;;;;;;;25.77;36.67;97643.41;1703191;83;21038;-69
2021/05/29 10:48:27;;;;;;;1.00;0.72;;;;;;;25.71;34.95;97652.38;1703183;83;21590;-71
2021/05/29 10:53:56;;;;;;;1.42;0.82;;;;;;;25.51;38.62;97634.79;1703335;83;21208;-69
2021/05/29 10:56:28;;;;;;;1.10;0.60;;;;;;;25.72;36.17;97638.56;1702996;83;21090;-70
2021/05/29 10:59:11;;;;;;;0.93;0.70;;;;;;;25.92;35.23;97644.91;1703458;83;21129;-70
2021/05/29 11:01:44;;;;;;;0.78;0.70;;;;;;;26.07;35.37;97638.18;1701726;83;21109;-71
2021/05/29 11:04:22;;;;;;;0.80;0.60;;;;;;;25.90;36.10;97639.57;1703172;83;21527;-69
2021/05/29 11:07:25;;;;;;;0.75;0.70;;;;;;;25.63;35.85;97644.83;1703231;83;21700;-69
2021/05/29 11:09:55;;;;;;;1.35;0.70;;;;;;;25.49;34.95;97643.52;1703152;83;21089;-69
2021/05/29 11:12:49;;;;;;;1.77;0.80;;;;;;;25.26;36.01;97647.71;1703250;83;21169;-70
2021/05/29 11:15:16;;;;;;;0.65;0.62;;;;;;;25.07;34.87;97655.66;1703188;83;21676;-71
2021/05/29 11:17:54;;;;;;;0.93;0.68;;;;;;;24.68;36.75;97646.24;1703393;83;21124;-70
2021/05/29 11:20:22;;;;;;;1.10;0.88;;;;;;;24.35;37.87;97649.66;1697358;82;21148;-68
2021/05/29 11:22:50;;;;;;;3.30;0.80;;;;;;;24.04;36.37;97652.23;1703165;83;21065;-69
2021/05/29 11:25:20;;;;;;;1.00;0.70;;;;;;;23.81;37.16;97653.59;1703334;83;21534;-70
2021/05/29 11:27:50;;;;;;;0.90;0.80;;;;;;;23.57;38.06;97659.48;1703237;83;21168;-71
2021/05/29 11:30:25;;;;;;;1.15;0.72;;;;;;;23.29;36.66;97655.88;1695964;83;21102;-70
2021/05/29 11:35:48;;;;;;;1.22;0.80;;;;;;;22.90;37.79;97667.43;1683735;84;21157;-70
2021/05/29 11:38:33;;;;;;;1.17;0.72;;;;;;;22.70;38.45;97666.92;1683788;84;21062;-70
2021/05/29 11:41:03;;;;;;;2.37;1.10;;;;;;;22.61;39.45;97675.66;1682908;84;21134;-70
2021/05/29 11:43:54;;;;;;;1.00;0.72;;;;;;;22.50;39.24;97669.82;1683679;84;21571;-70
2021/05/29 11:46:27;;;;;;;2.05;0.82;;;;;;;22.47;39.42;97675.57;1683745;84;21055;-70
2021/05/29 11:49:01;;;;;;;2.47;0.85;;;;;;;22.40;40.34;97675.38;1683770;84;21027;-70
2021/05/29 11:51:38;;;;;;;1.15;0.88;;;;;;;22.32;40.19;97674.36;1683586;84;21571;-70
2021/05/29 11:54:20;;;;;;;1.37;0.80;;;;;;;22.24;40.20;97663.06;1683576;84;21050;-70
2021/05/29 11:56:51;;;;;;;1.47;0.75;;;;;;;22.16;40.49;97662.56;1683589;84;21563;-70
2021/05/29 11:59:22;;;;;;;1.27;1.02;;;;;;;22.11;40.26;97659.77;1683584;84;21554;-70
2021/05/29 12:01:55;;;;;;;1.25;0.75;;;;;;;22.09;40.31;97657.37;1683757;85;21543;-70
2021/05/29 12:04:27;;;;;;;0.90;0.85;;;;;;;22.00;40.37;97661.34;1683592;84;21555;-70
2021/05/29 12:07:02;;;;;;;0.70;0.60;;;;;;;21.90;40.19;97665.00;1652522;87;21079;-70